sensor_id;sensor_type;location;lat;lon;timestamp;temperature;humidity
41344;DHT22;27089;50.022;7.604;2023-04-19T00:00:23;9.20;99.90
41344;DHT22;27089;50.022;7.604;2023-04-19T00:02:51;9.20;99.90
41344;DHT22;27089;50.022;7.604;2023-04-19T00:05:18;9.20;99.90
41344;DHT22;27089;50.022;7.604;2023-04-19T00:07:46;9.20;99.90
41344;DHT22;27089;50.022;7.604;2023-04-19T00:10:13;9.20;99.90
41344;DHT22;27089;50.022;7.604;2023-04-19T00:12:41;9.20;99.90
41344;DHT22;27089;50.022;7.604;2023-04-19T00:15:08;9.20;99.90
41344;DHT22;27089;50.022;7.604;2023-04-19T00:17:37;9.20;99.90
41344;DHT22;27089;50.022;7.604;2023-04-19T00:20:05;9.20;99.90
41344;DHT22;27089;50.022;7.604;2023-04-19T00:22:32;9.20;99.90
41344;DHT22;27089;50.022;7.604;2023-04-19T00:25:00;9.20;99.90
41344;DHT22;27089;50.022;7.604;2023-04-19T00:27:27;9.20;99.90
41344;DHT22;27089;50.022;7.604;2023-04-19T00:29:54;9.20;99.90
41344;DHT22;27089;50.022;7.604;2023-04-19T00:32:22;9.10;99.90
41344;DHT22;27089;50.022;7.604;2023-04-19T00:34:50;9.10;99.90
41344;DHT22;27089;50.022;7.604;2023-04-19T00:37:17;9.10;99.90
41344;DHT22;27089;50.022;7.604;2023-04-19T00:39:45;9.10;99.90
41344;DHT22;27089;50.022;7.604;2023-04-19T00:42:12;9.10;99.90
41344;DHT22;27089;50.022;7.604;2023-04-19T00:44:39;9.20;99.90
41344;DHT22;27089;50.022;7.604;2023-04-19T00:47:06;9.20;99.90
41344;DHT22;27089;50.022;7.604;2023-04-19T00:49:33;9.10;99.90
41344;DHT22;27089;50.022;7.604;2023-04-19T00:52:08;9.00;99.90
41344;DHT22;27089;50.022;7.604;2023-04-19T00:54:36;8.90;99.90
41344;DHT22;27089;50.022;7.604;2023-04-19T00:57:03;8.90;99.90
41344;DHT22;27089;50.022;7.604;2023-04-19T00:59:32;8.80;99.90
41344;DHT22;27089;50.022;7.604;2023-04-19T01:02:00;8.70;99.90
41344;DHT22;27089;50.022;7.604;2023-04-19T01:04:27;8.70;99.90
41344;DHT22;27089;50.022;7.604;2023-04-19T01:06:54;8.70;99.90
41344;DHT22;27089;50.022;7.604;2023-04-19T01:09:23;8.60;99.90
41344;DHT22;27089;50.022;7.604;2023-04-19T01:11:50;8.60;99.90
41344;DHT22;27089;50.022;7.604;2023-04-19T01:14:17;8.60;99.90
41344;DHT22;27089;50.022;7.604;2023-04-19T01:16:45;8.60;99.90
41344;DHT22;27089;50.022;7.604;2023-04-19T01:19:12;8.60;99.90
41344;DHT22;27089;50.022;7.604;2023-04-19T01:21:39;8.60;99.90
41344;DHT22;27089;50.022;7.604;2023-04-19T01:24:08;8.50;99.90
41344;DHT22;27089;50.022;7.604;2023-04-19T01:26:35;8.50;99.90
41344;DHT22;27089;50.022;7.604;2023-04-19T01:29:03;8.40;99.90
41344;DHT22;27089;50.022;7.604;2023-04-19T01:31:30;8.40;99.90
41344;DHT22;27089;50.022;7.604;2023-04-19T01:33:57;8.40;99.90
41344;DHT22;27089;50.022;7.604;2023-04-19T01:36:24;8.40;99.90
41344;DHT22;27089;50.022;7.604;2023-04-19T01:38:52;8.40;99.90
41344;DHT22;27089;50.022;7.604;2023-04-19T01:41:22;8.40;99.90
41344;DHT22;27089;50.022;7.604;2023-04-19T01:43:51;8.40;99.90
41344;DHT22;27089;50.022;7.604;2023-04-19T01:46:18;8.30;99.90
41344;DHT22;27089;50.022;7.604;2023-04-19T01:48:46;8.30;99.90
41344;DHT22;27089;50.022;7.604;2023-04-19T01:51:13;8.40;99.90
41344;DHT22;27089;50.022;7.604;2023-04-19T01:53:41;8.40;99.90
41344;DHT22;27089;50.022;7.604;2023-04-19T01:56:08;8.40;99.90
41344;DHT22;27089;50.022;7.604;2023-04-19T01:58:37;8.30;99.90
41344;DHT22;27089;50.022;7.604;2023-04-19T02:01:04;8.30;99.90
41344;DHT22;27089;50.022;7.604;2023-04-19T02:03:31;8.20;99.90
41344;DHT22;27089;50.022;7.604;2023-04-19T02:05:58;8.20;99.90
41344;DHT22;27089;50.022;7.604;2023-04-19T02:08:26;8.20;99.90
41344;DHT22;27089;50.022;7.604;2023-04-19T02:10:53;8.20;99.90
41344;DHT22;27089;50.022;7.604;2023-04-19T02:13:21;8.20;99.90
41344;DHT22;27089;50.022;7.604;2023-04-19T02:15:49;8.30;99.90
41344;DHT22;27089;50.022;7.604;2023-04-19T02:18:16;8.30;99.90
41344;DHT22;27089;50.022;7.604;2023-04-19T02:20:43;8.30;99.90
41344;DHT22;27089;50.022;7.604;2023-04-19T02:23:11;8.30;99.90
41344;DHT22;27089;50.022;7.604;2023-04-19T02:25:38;8.20;99.90
41344;DHT22;27089;50.022;7.604;2023-04-19T02:28:05;8.20;99.90
41344;DHT22;27089;50.022;7.604;2023-04-19T02:30:32;8.10;99.90
41344;DHT22;27089;50.022;7.604;2023-04-19T02:33:08;8.10;99.90
41344;DHT22;27089;50.022;7.604;2023-04-19T02:35:35;8.20;99.90
41344;DHT22;27089;50.022;7.604;2023-04-19T02:38:03;8.20;99.90
41344;DHT22;27089;50.022;7.604;2023-04-19T02:40:30;8.10;99.90
41344;DHT22;27089;50.022;7.604;2023-04-19T02:42:57;8.10;99.90
41344;DHT22;27089;50.022;7.604;2023-04-19T02:45:24;8.10;99.90
41344;DHT22;27089;50.022;7.604;2023-04-19T02:47:51;8.10;99.90
41344;DHT22;27089;50.022;7.604;2023-04-19T02:50:20;8.10;99.90
41344;DHT22;27089;50.022;7.604;2023-04-19T02:52:47;8.10;99.90
41344;DHT22;27089;50.022;7.604;2023-04-19T02:55:15;8.10;99.90
41344;DHT22;27089;50.022;7.604;2023-04-19T02:57:42;8.10;99.90
41344;DHT22;27089;50.022;7.604;2023-04-19T03:00:10;8.10;99.90
41344;DHT22;27089;50.022;7.604;2023-04-19T03:02:37;8.10;99.90
41344;DHT22;27089;50.022;7.604;2023-04-19T03:05:05;8.10;99.90
41344;DHT22;27089;50.022;7.604;2023-04-19T03:07:33;8.00;99.90
41344;DHT22;27089;50.022;7.604;2023-04-19T03:10:01;8.00;99.90
41344;DHT22;27089;50.022;7.604;2023-04-19T03:12:28;7.90;99.90
41344;DHT22;27089;50.022;7.604;2023-04-19T03:14:55;7.80;99.90
41344;DHT22;27089;50.022;7.604;2023-04-19T03:17:22;7.80;99.90
41344;DHT22;27089;50.022;7.604;2023-04-19T03:19:49;7.80;99.90
41344;DHT22;27089;50.022;7.604;2023-04-19T03:22:17;7.70;99.90
41344;DHT22;27089;50.022;7.604;2023-04-19T03:24:45;7.70;99.90
41344;DHT22;27089;50.022;7.604;2023-04-19T03:27:12;7.70;99.90
41344;DHT22;27089;50.022;7.604;2023-04-19T03:29:39;7.80;99.90
41344;DHT22;27089;50.022;7.604;2023-04-19T03:32:07;7.80;99.90
41344;DHT22;27089;50.022;7.604;2023-04-19T03:34:34;7.80;99.90
41344;DHT22;27089;50.022;7.604;2023-04-19T03:37:01;7.80;99.90
41344;DHT22;27089;50.022;7.604;2023-04-19T03:39:29;7.80;99.90
41344;DHT22;27089;50.022;7.604;2023-04-19T03:41:57;7.80;99.90
41344;DHT22;27089;50.022;7.604;2023-04-19T03:44:24;7.90;99.90
41344;DHT22;27089;50.022;7.604;2023-04-19T03:46:51;7.90;99.90
41344;DHT22;27089;50.022;7.604;2023-04-19T03:49:18;7.90;99.90
41344;DHT22;27089;50.022;7.604;2023-04-19T03:51:45;7.90;99.90
41344;DHT22;27089;50.022;7.604;2023-04-19T03:54:12;7.90;99.90
41344;DHT22;27089;50.022;7.604;2023-04-19T03:56:39;7.90;99.90
41344;DHT22;27089;50.022;7.604;2023-04-19T03:59:08;7.90;99.90
41344;DHT22;27089;50.022;7.604;2023-04-19T04:01:36;8.00;99.90
41344;DHT22;27089;50.022;7.604;2023-04-19T04:04:06;7.90;99.90
41344;DHT22;27089;50.022;7.604;2023-04-19T04:06:33;8.00;99.90
41344;DHT22;27089;50.022;7.604;2023-04-19T04:09:00;8.00;99.90
41344;DHT22;27089;50.022;7.604;2023-04-19T04:11:27;8.00;99.90
41344;DHT22;27089;50.022;7.604;2023-04-19T04:13:55;8.00;99.90
41344;DHT22;27089;50.022;7.604;2023-04-19T04:16:23;8.00;99.90
41344;DHT22;27089;50.022;7.604;2023-04-19T04:18:50;8.00;99.90
41344;DHT22;27089;50.022;7.604;2023-04-19T04:21:18;8.00;99.90
41344;DHT22;27089;50.022;7.604;2023-04-19T04:23:45;8.00;99.90
41344;DHT22;27089;50.022;7.604;2023-04-19T04:26:14;8.00;99.90
41344;DHT22;27089;50.022;7.604;2023-04-19T04:28:41;8.00;99.90
41344;DHT22;27089;50.022;7.604;2023-04-19T04:31:08;8.00;99.90
41344;DHT22;27089;50.022;7.604;2023-04-19T04:33:41;8.00;99.90
41344;DHT22;27089;50.022;7.604;2023-04-19T04:36:11;8.00;99.90
41344;DHT22;27089;50.022;7.604;2023-04-19T04:38:38;8.00;99.90
41344;DHT22;27089;50.022;7.604;2023-04-19T04:41:06;8.00;99.90
41344;DHT22;27089;50.022;7.604;2023-04-19T04:43:33;8.00;99.90
41344;DHT22;27089;50.022;7.604;2023-04-19T04:46:01;8.00;99.90
41344;DHT22;27089;50.022;7.604;2023-04-19T04:48:28;8.00;99.90
41344;DHT22;27089;50.022;7.604;2023-04-19T04:50:58;7.90;99.90
41344;DHT22;27089;50.022;7.604;2023-04-19T04:53:26;7.90;99.90
41344;DHT22;27089;50.022;7.604;2023-04-19T04:55:53;7.90;99.90
41344;DHT22;27089;50.022;7.604;2023-04-19T04:58:20;7.90;99.90
41344;DHT22;27089;50.022;7.604;2023-04-19T05:00:47;8.00;99.90
41344;DHT22;27089;50.022;7.604;2023-04-19T05:03:16;7.90;99.90
41344;DHT22;27089;50.022;7.604;2023-04-19T05:05:43;8.00;99.90
41344;DHT22;27089;50.022;7.604;2023-04-19T05:08:11;8.00;99.90
41344;DHT22;27089;50.022;7.604;2023-04-19T05:10:39;8.00;99.90
41344;DHT22;27089;50.022;7.604;2023-04-19T05:13:07;8.00;99.90
41344;DHT22;27089;50.022;7.604;2023-04-19T05:15:34;8.00;99.90
41344;DHT22;27089;50.022;7.604;2023-04-19T05:18:04;8.00;99.90
41344;DHT22;27089;50.022;7.604;2023-04-19T05:20:32;8.00;99.90
41344;DHT22;27089;50.022;7.604;2023-04-19T05:22:59;8.10;99.90
41344;DHT22;27089;50.022;7.604;2023-04-19T05:25:29;8.20;99.90
41344;DHT22;27089;50.022;7.604;2023-04-19T05:27:56;8.30;99.90
41344;DHT22;27089;50.022;7.604;2023-04-19T05:30:23;8.30;99.90
41344;DHT22;27089;50.022;7.604;2023-04-19T05:32:50;8.40;99.90
41344;DHT22;27089;50.022;7.604;2023-04-19T05:35:18;8.40;99.90
41344;DHT22;27089;50.022;7.604;2023-04-19T05:37:45;8.50;99.90
41344;DHT22;27089;50.022;7.604;2023-04-19T05:40:12;8.70;99.90
41344;DHT22;27089;50.022;7.604;2023-04-19T05:42:40;8.70;99.90
41344;DHT22;27089;50.022;7.604;2023-04-19T05:45:09;8.70;99.90
41344;DHT22;27089;50.022;7.604;2023-04-19T05:47:36;8.60;99.90
41344;DHT22;27089;50.022;7.604;2023-04-19T05:50:04;8.70;99.90
41344;DHT22;27089;50.022;7.604;2023-04-19T05:52:31;8.80;99.90
41344;DHT22;27089;50.022;7.604;2023-04-19T05:54:58;8.80;99.90
41344;DHT22;27089;50.022;7.604;2023-04-19T05:57:26;9.10;99.90
41344;DHT22;27089;50.022;7.604;2023-04-19T05:59:54;9.20;99.90
41344;DHT22;27089;50.022;7.604;2023-04-19T06:02:27;9.10;99.90
41344;DHT22;27089;50.022;7.604;2023-04-19T06:04:54;9.00;99.90
41344;DHT22;27089;50.022;7.604;2023-04-19T06:07:22;9.00;99.90
41344;DHT22;27089;50.022;7.604;2023-04-19T06:09:49;9.00;99.90
41344;DHT22;27089;50.022;7.604;2023-04-19T06:12:16;9.00;99.90
41344;DHT22;27089;50.022;7.604;2023-04-19T06:14:43;9.10;99.90
41344;DHT22;27089;50.022;7.604;2023-04-19T06:17:12;9.10;99.90
41344;DHT22;27089;50.022;7.604;2023-04-19T06:19:41;9.10;99.90
41344;DHT22;27089;50.022;7.604;2023-04-19T06:22:08;9.30;99.90
41344;DHT22;27089;50.022;7.604;2023-04-19T06:24:35;9.50;99.90
41344;DHT22;27089;50.022;7.604;2023-04-19T06:27:02;9.60;99.90
41344;DHT22;27089;50.022;7.604;2023-04-19T06:29:29;9.70;99.90
41344;DHT22;27089;50.022;7.604;2023-04-19T06:31:56;9.60;99.90
41344;DHT22;27089;50.022;7.604;2023-04-19T06:34:25;9.60;99.90
41344;DHT22;27089;50.022;7.604;2023-04-19T06:36:52;9.60;99.90
41344;DHT22;27089;50.022;7.604;2023-04-19T06:39:19;9.60;99.90
41344;DHT22;27089;50.022;7.604;2023-04-19T06:41:46;9.40;99.90
41344;DHT22;27089;50.022;7.604;2023-04-19T06:44:13;9.40;99.90
41344;DHT22;27089;50.022;7.604;2023-04-19T06:46:40;9.40;99.90
41344;DHT22;27089;50.022;7.604;2023-04-19T06:49:07;9.50;99.90
41344;DHT22;27089;50.022;7.604;2023-04-19T06:51:37;9.60;99.90
41344;DHT22;27089;50.022;7.604;2023-04-19T06:54:05;9.60;99.90
41344;DHT22;27089;50.022;7.604;2023-04-19T06:56:39;9.60;99.90
41344;DHT22;27089;50.022;7.604;2023-04-19T06:59:10;9.50;99.90
41344;DHT22;27089;50.022;7.604;2023-04-19T07:01:37;9.60;99.90
41344;DHT22;27089;50.022;7.604;2023-04-19T07:04:06;9.60;99.90
41344;DHT22;27089;50.022;7.604;2023-04-19T07:06:34;9.60;99.90
41344;DHT22;27089;50.022;7.604;2023-04-19T07:09:03;9.60;99.90
41344;DHT22;27089;50.022;7.604;2023-04-19T07:11:31;9.60;99.90
41344;DHT22;27089;50.022;7.604;2023-04-19T07:13:58;9.50;99.90
41344;DHT22;27089;50.022;7.604;2023-04-19T07:16:26;9.50;99.90
41344;DHT22;27089;50.022;7.604;2023-04-19T07:18:53;9.40;99.90
41344;DHT22;27089;50.022;7.604;2023-04-19T07:21:20;9.30;99.90
41344;DHT22;27089;50.022;7.604;2023-04-19T07:23:50;9.40;99.90
41344;DHT22;27089;50.022;7.604;2023-04-19T07:26:18;9.30;99.90
41344;DHT22;27089;50.022;7.604;2023-04-19T07:28:46;9.30;99.90
41344;DHT22;27089;50.022;7.604;2023-04-19T07:31:16;9.20;99.90
41344;DHT22;27089;50.022;7.604;2023-04-19T07:33:44;9.20;99.90
41344;DHT22;27089;50.022;7.604;2023-04-19T07:36:11;9.30;99.90
41344;DHT22;27089;50.022;7.604;2023-04-19T07:38:38;9.40;99.90
41344;DHT22;27089;50.022;7.604;2023-04-19T07:41:05;9.40;99.90
41344;DHT22;27089;50.022;7.604;2023-04-19T07:43:35;9.50;99.90
41344;DHT22;27089;50.022;7.604;2023-04-19T07:46:08;9.60;99.90
41344;DHT22;27089;50.022;7.604;2023-04-19T07:48:35;9.70;99.90
41344;DHT22;27089;50.022;7.604;2023-04-19T07:51:08;9.80;99.90
41344;DHT22;27089;50.022;7.604;2023-04-19T07:53:37;9.90;99.90
41344;DHT22;27089;50.022;7.604;2023-04-19T07:56:05;9.90;99.90
41344;DHT22;27089;50.022;7.604;2023-04-19T07:58:32;9.90;99.90
41344;DHT22;27089;50.022;7.604;2023-04-19T08:01:03;10.00;99.90
41344;DHT22;27089;50.022;7.604;2023-04-19T08:03:33;10.10;99.90
41344;DHT22;27089;50.022;7.604;2023-04-19T08:06:02;10.50;99.90
41344;DHT22;27089;50.022;7.604;2023-04-19T08:08:29;10.90;99.90
41344;DHT22;27089;50.022;7.604;2023-04-19T08:10:56;11.10;99.90
41344;DHT22;27089;50.022;7.604;2023-04-19T08:13:24;11.20;99.90
41344;DHT22;27089;50.022;7.604;2023-04-19T08:15:51;11.40;99.90
41344;DHT22;27089;50.022;7.604;2023-04-19T08:18:20;11.50;99.90
41344;DHT22;27089;50.022;7.604;2023-04-19T08:20:47;11.70;99.90
41344;DHT22;27089;50.022;7.604;2023-04-19T08:23:14;11.50;99.90
41344;DHT22;27089;50.022;7.604;2023-04-19T08:25:41;11.30;99.90
41344;DHT22;27089;50.022;7.604;2023-04-19T08:28:08;11.10;99.90
41344;DHT22;27089;50.022;7.604;2023-04-19T08:30:37;11.20;99.90
41344;DHT22;27089;50.022;7.604;2023-04-19T08:33:04;11.40;99.90
41344;DHT22;27089;50.022;7.604;2023-04-19T08:35:33;11.50;99.90
41344;DHT22;27089;50.022;7.604;2023-04-19T08:38:00;11.70;99.90
41344;DHT22;27089;50.022;7.604;2023-04-19T08:40:29;11.70;99.90
41344;DHT22;27089;50.022;7.604;2023-04-19T08:42:57;11.50;99.90
41344;DHT22;27089;50.022;7.604;2023-04-19T08:45:26;11.40;99.90
41344;DHT22;27089;50.022;7.604;2023-04-19T08:47:55;11.40;99.90
41344;DHT22;27089;50.022;7.604;2023-04-19T08:50:23;11.20;99.90
41344;DHT22;27089;50.022;7.604;2023-04-19T08:52:51;11.30;99.90
41344;DHT22;27089;50.022;7.604;2023-04-19T08:55:18;11.30;99.90
41344;DHT22;27089;50.022;7.604;2023-04-19T08:57:46;11.40;99.90
41344;DHT22;27089;50.022;7.604;2023-04-19T09:00:13;11.50;99.90
41344;DHT22;27089;50.022;7.604;2023-04-19T09:02:44;11.60;99.90
41344;DHT22;27089;50.022;7.604;2023-04-19T09:05:13;11.60;99.90
41344;DHT22;27089;50.022;7.604;2023-04-19T09:07:40;11.50;99.90
41344;DHT22;27089;50.022;7.604;2023-04-19T09:10:11;11.60;99.90
41344;DHT22;27089;50.022;7.604;2023-04-19T09:12:39;11.60;99.90
41344;DHT22;27089;50.022;7.604;2023-04-19T09:15:07;11.70;99.90
41344;DHT22;27089;50.022;7.604;2023-04-19T09:17:35;11.70;99.90
41344;DHT22;27089;50.022;7.604;2023-04-19T09:20:04;11.50;99.90
41344;DHT22;27089;50.022;7.604;2023-04-19T09:22:32;11.60;99.90
41344;DHT22;27089;50.022;7.604;2023-04-19T09:25:00;11.40;99.90
41344;DHT22;27089;50.022;7.604;2023-04-19T09:27:29;11.40;99.90
41344;DHT22;27089;50.022;7.604;2023-04-19T09:29:58;11.50;99.90
41344;DHT22;27089;50.022;7.604;2023-04-19T09:32:26;11.70;99.90
41344;DHT22;27089;50.022;7.604;2023-04-19T09:34:55;11.80;99.90
41344;DHT22;27089;50.022;7.604;2023-04-19T09:37:23;12.10;99.90
41344;DHT22;27089;50.022;7.604;2023-04-19T09:39:51;12.20;99.90
41344;DHT22;27089;50.022;7.604;2023-04-19T09:42:18;12.20;99.90
41344;DHT22;27089;50.022;7.604;2023-04-19T09:44:57;12.30;99.90
41344;DHT22;27089;50.022;7.604;2023-04-19T09:47:26;12.40;99.90
41344;DHT22;27089;50.022;7.604;2023-04-19T09:50:04;12.30;99.90
41344;DHT22;27089;50.022;7.604;2023-04-19T09:52:32;12.30;99.90
41344;DHT22;27089;50.022;7.604;2023-04-19T09:55:00;12.90;99.90
41344;DHT22;27089;50.022;7.604;2023-04-19T09:57:28;13.50;99.90
41344;DHT22;27089;50.022;7.604;2023-04-19T09:59:57;13.30;99.90
41344;DHT22;27089;50.022;7.604;2023-04-19T10:02:25;12.80;99.90
41344;DHT22;27089;50.022;7.604;2023-04-19T10:04:57;12.90;99.90
41344;DHT22;27089;50.022;7.604;2023-04-19T10:07:24;13.20;99.90
41344;DHT22;27089;50.022;7.604;2023-04-19T10:09:53;13.20;99.90
41344;DHT22;27089;50.022;7.604;2023-04-19T10:12:23;13.40;99.90
41344;DHT22;27089;50.022;7.604;2023-04-19T10:14:53;13.50;99.90
41344;DHT22;27089;50.022;7.604;2023-04-19T10:17:23;13.30;99.90
41344;DHT22;27089;50.022;7.604;2023-04-19T10:19:56;13.00;99.90
41344;DHT22;27089;50.022;7.604;2023-04-19T10:22:25;12.80;99.90
41344;DHT22;27089;50.022;7.604;2023-04-19T10:25:10;12.70;99.90
41344;DHT22;27089;50.022;7.604;2023-04-19T10:27:37;12.80;99.90
41344;DHT22;27089;50.022;7.604;2023-04-19T10:30:05;12.80;99.90
41344;DHT22;27089;50.022;7.604;2023-04-19T10:32:40;12.90;99.90
41344;DHT22;27089;50.022;7.604;2023-04-19T10:35:08;12.90;99.90
41344;DHT22;27089;50.022;7.604;2023-04-19T10:37:39;12.90;99.90
41344;DHT22;27089;50.022;7.604;2023-04-19T10:40:07;12.90;99.90
41344;DHT22;27089;50.022;7.604;2023-04-19T10:45:40;12.70;99.90
41344;DHT22;27089;50.022;7.604;2023-04-19T10:48:36;12.70;99.90
41344;DHT22;27089;50.022;7.604;2023-04-19T10:51:10;12.90;99.90
41344;DHT22;27089;50.022;7.604;2023-04-19T10:53:47;12.90;99.90
41344;DHT22;27089;50.022;7.604;2023-04-19T10:56:15;13.10;99.90
41344;DHT22;27089;50.022;7.604;2023-04-19T10:59:13;13.40;99.90
41344;DHT22;27089;50.022;7.604;2023-04-19T11:01:52;13.10;99.90
41344;DHT22;27089;50.022;7.604;2023-04-19T11:07:04;13.20;99.90
41344;DHT22;27089;50.022;7.604;2023-04-19T11:09:33;13.20;99.90
41344;DHT22;27089;50.022;7.604;2023-04-19T11:12:04;13.30;99.90
41344;DHT22;27089;50.022;7.604;2023-04-19T11:14:34;13.50;99.90
41344;DHT22;27089;50.022;7.604;2023-04-19T11:17:03;13.70;99.90
41344;DHT22;27089;50.022;7.604;2023-04-19T11:19:31;13.80;99.90
41344;DHT22;27089;50.022;7.604;2023-04-19T11:21:58;13.90;99.90
41344;DHT22;27089;50.022;7.604;2023-04-19T11:24:26;13.70;99.90
41344;DHT22;27089;50.022;7.604;2023-04-19T11:26:55;13.90;99.90
41344;DHT22;27089;50.022;7.604;2023-04-19T11:29:24;14.00;99.90
41344;DHT22;27089;50.022;7.604;2023-04-19T11:31:51;13.70;99.90
41344;DHT22;27089;50.022;7.604;2023-04-19T11:34:22;13.90;99.90
41344;DHT22;27089;50.022;7.604;2023-04-19T11:36:51;13.50;99.90
41344;DHT22;27089;50.022;7.604;2023-04-19T11:39:18;13.10;99.90
41344;DHT22;27089;50.022;7.604;2023-04-19T11:41:46;12.90;99.90
41344;DHT22;27089;50.022;7.604;2023-04-19T11:44:15;13.00;99.90
41344;DHT22;27089;50.022;7.604;2023-04-19T11:46:57;13.10;99.90
41344;DHT22;27089;50.022;7.604;2023-04-19T11:49:28;13.00;99.90
41344;DHT22;27089;50.022;7.604;2023-04-19T11:51:58;13.40;99.90
41344;DHT22;27089;50.022;7.604;2023-04-19T11:54:26;13.80;99.90
41344;DHT22;27089;50.022;7.604;2023-04-19T11:56:58;13.90;99.90
41344;DHT22;27089;50.022;7.604;2023-04-19T11:59:27;13.60;99.90
41344;DHT22;27089;50.022;7.604;2023-04-19T12:01:54;13.70;99.90
41344;DHT22;27089;50.022;7.604;2023-04-19T12:04:22;13.90;99.90
41344;DHT22;27089;50.022;7.604;2023-04-19T12:07:05;14.20;99.90
41344;DHT22;27089;50.022;7.604;2023-04-19T12:09:33;13.80;99.90
41344;DHT22;27089;50.022;7.604;2023-04-19T12:12:01;13.60;99.90
41344;DHT22;27089;50.022;7.604;2023-04-19T12:14:29;13.60;99.90
41344;DHT22;27089;50.022;7.604;2023-04-19T12:17:07;13.70;99.90
41344;DHT22;27089;50.022;7.604;2023-04-19T12:19:36;13.60;99.90
41344;DHT22;27089;50.022;7.604;2023-04-19T12:22:12;13.80;99.90
41344;DHT22;27089;50.022;7.604;2023-04-19T12:24:40;13.70;99.90
41344;DHT22;27089;50.022;7.604;2023-04-19T12:27:08;13.40;99.90
41344;DHT22;27089;50.022;7.604;2023-04-19T12:29:36;13.40;99.90
41344;DHT22;27089;50.022;7.604;2023-04-19T12:32:04;13.20;99.90
41344;DHT22;27089;50.022;7.604;2023-04-19T12:34:31;13.20;99.90
41344;DHT22;27089;50.022;7.604;2023-04-19T12:36:58;13.10;99.90
41344;DHT22;27089;50.022;7.604;2023-04-19T12:39:27;13.00;99.90
41344;DHT22;27089;50.022;7.604;2023-04-19T12:41:54;13.10;99.90
41344;DHT22;27089;50.022;7.604;2023-04-19T12:44:21;13.30;99.90
41344;DHT22;27089;50.022;7.604;2023-04-19T12:46:48;13.50;99.90
41344;DHT22;27089;50.022;7.604;2023-04-19T12:49:17;13.20;99.90
41344;DHT22;27089;50.022;7.604;2023-04-19T12:51:45;13.40;99.90
41344;DHT22;27089;50.022;7.604;2023-04-19T12:54:13;13.20;99.90
41344;DHT22;27089;50.022;7.604;2023-04-19T12:56:42;13.30;99.90
41344;DHT22;27089;50.022;7.604;2023-04-19T12:59:09;13.00;99.90
41344;DHT22;27089;50.022;7.604;2023-04-19T13:01:36;13.10;99.90
41344;DHT22;27089;50.022;7.604;2023-04-19T13:04:03;13.40;99.90
41344;DHT22;27089;50.022;7.604;2023-04-19T13:06:32;13.40;99.90
41344;DHT22;27089;50.022;7.604;2023-04-19T13:08:59;13.00;99.90
41344;DHT22;27089;50.022;7.604;2023-04-19T13:11:26;12.80;99.90
41344;DHT22;27089;50.022;7.604;2023-04-19T13:13:54;12.70;99.90
41344;DHT22;27089;50.022;7.604;2023-04-19T13:16:21;12.60;99.90
41344;DHT22;27089;50.022;7.604;2023-04-19T13:18:49;12.50;99.90
41344;DHT22;27089;50.022;7.604;2023-04-19T13:21:17;12.60;99.90
41344;DHT22;27089;50.022;7.604;2023-04-19T13:23:44;12.60;99.90
41344;DHT22;27089;50.022;7.604;2023-04-19T13:26:11;12.60;99.90
41344;DHT22;27089;50.022;7.604;2023-04-19T13:28:39;12.50;99.90
41344;DHT22;27089;50.022;7.604;2023-04-19T13:31:07;12.40;99.90
41344;DHT22;27089;50.022;7.604;2023-04-19T13:33:34;12.40;99.90
41344;DHT22;27089;50.022;7.604;2023-04-19T13:36:01;12.50;99.90
41344;DHT22;27089;50.022;7.604;2023-04-19T13:38:28;12.60;99.90
41344;DHT22;27089;50.022;7.604;2023-04-19T13:40:55;12.70;99.90
41344;DHT22;27089;50.022;7.604;2023-04-19T13:43:22;12.70;99.90
41344;DHT22;27089;50.022;7.604;2023-04-19T13:45:49;12.60;99.50
41344;DHT22;27089;50.022;7.604;2023-04-19T13:48:18;12.50;97.70
41344;DHT22;27089;50.022;7.604;2023-04-19T13:50:46;12.60;97.10
41344;DHT22;27089;50.022;7.604;2023-04-19T13:53:14;12.50;94.20
41344;DHT22;27089;50.022;7.604;2023-04-19T13:55:41;12.50;94.60
41344;DHT22;27089;50.022;7.604;2023-04-19T13:58:08;12.50;92.50
41344;DHT22;27089;50.022;7.604;2023-04-19T14:00:35;12.50;96.20
41344;DHT22;27089;50.022;7.604;2023-04-19T14:03:02;12.50;95.40
41344;DHT22;27089;50.022;7.604;2023-04-19T14:05:31;12.30;93.60
41344;DHT22;27089;50.022;7.604;2023-04-19T14:07:58;12.30;93.70
41344;DHT22;27089;50.022;7.604;2023-04-19T14:10:25;12.40;94.10
41344;DHT22;27089;50.022;7.604;2023-04-19T14:12:52;12.50;95.20
41344;DHT22;27089;50.022;7.604;2023-04-19T14:15:20;12.50;93.70
41344;DHT22;27089;50.022;7.604;2023-04-19T14:17:48;12.50;93.70
41344;DHT22;27089;50.022;7.604;2023-04-19T14:20:16;12.40;96.40
41344;DHT22;27089;50.022;7.604;2023-04-19T14:22:45;12.30;96.90
41344;DHT22;27089;50.022;7.604;2023-04-19T14:25:12;12.30;96.40
41344;DHT22;27089;50.022;7.604;2023-04-19T14:27:41;12.30;94.40
41344;DHT22;27089;50.022;7.604;2023-04-19T14:30:08;12.30;98.00
41344;DHT22;27089;50.022;7.604;2023-04-19T14:32:37;12.40;94.90
41344;DHT22;27089;50.022;7.604;2023-04-19T14:35:05;12.30;94.80
41344;DHT22;27089;50.022;7.604;2023-04-19T14:37:36;12.40;95.40
41344;DHT22;27089;50.022;7.604;2023-04-19T14:40:06;12.50;95.30
41344;DHT22;27089;50.022;7.604;2023-04-19T14:42:33;12.50;95.20
41344;DHT22;27089;50.022;7.604;2023-04-19T14:45:00;12.70;95.90
41344;DHT22;27089;50.022;7.604;2023-04-19T14:47:27;12.60;96.30
41344;DHT22;27089;50.022;7.604;2023-04-19T14:49:54;12.60;96.80
41344;DHT22;27089;50.022;7.604;2023-04-19T14:52:27;12.80;97.20
41344;DHT22;27089;50.022;7.604;2023-04-19T14:54:55;12.80;94.60
41344;DHT22;27089;50.022;7.604;2023-04-19T14:57:26;12.70;96.10
41344;DHT22;27089;50.022;7.604;2023-04-19T14:59:53;12.70;95.50
41344;DHT22;27089;50.022;7.604;2023-04-19T15:02:23;12.90;96.60
41344;DHT22;27089;50.022;7.604;2023-04-19T15:07:51;12.70;94.30
41344;DHT22;27089;50.022;7.604;2023-04-19T15:10:18;12.70;95.90
41344;DHT22;27089;50.022;7.604;2023-04-19T15:12:45;12.80;92.50
41344;DHT22;27089;50.022;7.604;2023-04-19T15:15:12;12.70;94.40
41344;DHT22;27089;50.022;7.604;2023-04-19T15:17:39;12.90;93.80
41344;DHT22;27089;50.022;7.604;2023-04-19T15:20:08;12.80;91.90
41344;DHT22;27089;50.022;7.604;2023-04-19T15:22:35;12.80;91.30
41344;DHT22;27089;50.022;7.604;2023-04-19T15:25:04;12.60;91.30
41344;DHT22;27089;50.022;7.604;2023-04-19T15:27:32;12.60;88.40
41344;DHT22;27089;50.022;7.604;2023-04-19T15:29:59;12.60;90.00
41344;DHT22;27089;50.022;7.604;2023-04-19T15:32:26;12.60;91.90
41344;DHT22;27089;50.022;7.604;2023-04-19T15:34:58;12.50;89.90
41344;DHT22;27089;50.022;7.604;2023-04-19T15:37:25;12.50;91.60
41344;DHT22;27089;50.022;7.604;2023-04-19T15:39:53;12.60;90.70
41344;DHT22;27089;50.022;7.604;2023-04-19T15:42:22;12.60;90.00
41344;DHT22;27089;50.022;7.604;2023-04-19T15:44:49;12.60;90.60
41344;DHT22;27089;50.022;7.604;2023-04-19T15:47:16;12.50;90.10
41344;DHT22;27089;50.022;7.604;2023-04-19T15:49:43;12.20;90.00
41344;DHT22;27089;50.022;7.604;2023-04-19T15:52:12;12.10;89.30